Terminal Aerodrome Forecast
Issued by NWS

Home | Current Version | Previous Version | Text Only | Print | Product List | Glossary On
Versions: 1 2 3 4 5 6 7 8 9 10 11 12 13 14 15
424
FTUS43 KGRB 022335
TAFATW
TAF
KATW 022335Z 0300/0324 12006KT P6SM SKC
     FM031300 24007KT P6SM FEW120 SCT200
     FM031600 25010G16KT P6SM SCT050 BKN120
     FM032000 24015G21KT P6SM VCSH BKN050
      TEMPO 0321/0324 3SM -TSRA BKN040CB=

USA.gov is the U.S. government's official web portal to all federal, state and local government web resources and services.